메인 페이지
METAR-TAF:

METAR-TAF

공항 :

마두라이, 인도

위도: 09-50-01N, 경도: 078-05-22E, 고도: 136m

현재 날씨관측

예보는 29분 전, 04:30시(UTC)에 발표되었습니다.
무풍
온도 30°C
습도 62%
기압 1015 hPa
시정: 5000m
고도 2000ft 상공 구름 보통
고도 10000ft 상공 구름 보통
연무

METAR: VOMD 160430Z 00000KT 5000 HZ SCT020 SCT100 30/22 Q1015 NOSIG

시각: 10:29 (04:59 UTC)

예보

예보는 5 시간 59분 전, 23:00시(UTC)에 발표되었습니다.
예보 대상 시간: 16일 00시부터 17일 06시까지 (UTC)
kt
시정: 3000m
고도 2000ft 상공 구름 조금
고도 10000ft 상공 구름 보통
박무
전환 중
16일 05시부터 16일 06시까지 (UTC)
10kt
시정: 6000m
일시적
16일 09시부터 16일 15시까지 (UTC)
시정: 4000m
고도 1800ft 상공 구름 보통
고도 8000ft 상공 구름 많음
전환 중
16일 21시부터 16일 22시까지 (UTC)
kt
시정: 3000m
박무
전환 중
17일 05시부터 17일 06시까지 (UTC)
10kt
시정: 6000m

TAF: VOMD 152300Z 1600/1706 00000KT 3000 BR FEW020 SCT100 BECMG 1605/1606 18010KT 6000 TEMPO 1609/1615 4000 -TSRA/RA SCT018 FEW025TCU/CB BKN080 BECMG 1621/1622 00000KT 3000 BR BECMG 1705/1706 18010KT 6000

4,000개 이상의 공항 관측 자료 및 예보 (METAR 및 TAF 보고).

지도상에서 검색 가능한 기상관측소가 노란 점과 빨간 점으로 표시되어 있습니다.

기상관측소 명을 보려면 표시 위로 마우스를 이동하세요.

날씨 관측과 예보를 보려면 클릭하세요.

지도 변경 : 확대하려면 엑스 표시가 있는 녹색 버튼, 축소하려면 빼기 표시가 있는 녹색 버튼, 다음 페이지의 지도를 보려면 녹색 화살표를 클릭하세요.


METAR-TAF: